createdAt,value
2019-02-06T00:01:17.928Z,67.60
2019-02-06T00:05:21.471Z,67.60
2019-02-06T00:09:24.912Z,67.30
2019-02-06T00:13:47.717Z,67.70
2019-02-06T00:17:51.264Z,67.00
2019-02-06T00:21:54.789Z,67.60
2019-02-06T00:25:58.235Z,67.50
2019-02-06T00:30:01.753Z,67.90
2019-02-06T00:34:05.261Z,67.80
2019-02-06T00:38:09.364Z,68.00
2019-02-06T00:42:12.791Z,68.00
2019-02-06T00:46:16.238Z,68.00
2019-02-06T00:50:19.741Z,68.10
2019-02-06T00:54:23.177Z,68.20
2019-02-06T00:58:26.601Z,68.30
2019-02-06T01:02:30.134Z,68.10
2019-02-06T01:06:33.790Z,68.10
2019-02-06T01:10:37.932Z,67.90
2019-02-06T01:14:42.079Z,68.10
2019-02-06T01:18:45.504Z,68.10
2019-02-06T01:22:48.947Z,67.90
2019-02-06T01:26:52.381Z,67.80
2019-02-06T01:30:57.456Z,67.90
2019-02-06T01:35:00.893Z,67.80
2019-02-06T01:39:08.760Z,67.60
2019-02-06T01:43:12.267Z,67.70
2019-02-06T01:47:16.280Z,67.60
2019-02-06T01:51:19.726Z,67.40
2019-02-06T01:55:23.170Z,67.30
2019-02-06T01:59:26.588Z,67.30
2019-02-06T02:03:30.040Z,66.70
2019-02-06T02:07:33.476Z,67.40
2019-02-06T02:11:36.917Z,67.70
2019-02-06T02:15:40.348Z,67.70
2019-02-06T02:19:43.776Z,67.80
2019-02-06T02:23:47.228Z,67.90
2019-02-06T02:27:50.731Z,68.30
2019-02-06T02:31:54.312Z,68.20
2019-02-06T02:35:57.905Z,68.20
2019-02-06T02:40:01.655Z,68.40
2019-02-06T02:44:05.260Z,68.30
2019-02-06T02:48:09.622Z,68.20
2019-02-06T02:52:13.151Z,68.20
2019-02-06T02:56:17.005Z,68.40
2019-02-06T03:00:23.145Z,68.30
2019-02-06T03:04:27.855Z,68.20
2019-02-06T03:08:31.286Z,68.10
2019-02-06T03:12:34.721Z,68.40
2019-02-06T03:16:38.239Z,68.40
2019-02-06T03:20:41.749Z,69.10
2019-02-06T03:24:45.184Z,68.80
2019-02-06T03:28:48.625Z,68.90
2019-02-06T03:32:52.057Z,68.80
2019-02-06T03:36:55.489Z,68.80
2019-02-06T03:40:58.924Z,68.60
2019-02-06T03:45:02.377Z,68.50
2019-02-06T03:49:05.804Z,68.20
2019-02-06T03:53:09.287Z,68.20
2019-02-06T03:57:14.398Z,68.10
2019-02-06T04:01:17.831Z,68.00
2019-02-06T04:05:21.341Z,67.80
2019-02-06T04:09:24.771Z,67.90
2019-02-06T04:13:28.212Z,67.60
2019-02-06T04:17:31.632Z,67.90
2019-02-06T04:21:35.068Z,67.50
2019-02-06T04:25:38.512Z,67.60
2019-02-06T04:29:41.954Z,67.50
2019-02-06T04:33:45.405Z,67.40
2019-02-06T04:37:48.837Z,67.40
2019-02-06T04:41:52.277Z,67.30
2019-02-06T04:45:55.712Z,67.20
2019-02-06T04:49:59.157Z,67.20
2019-02-06T04:54:02.658Z,67.00
2019-02-06T04:58:06.085Z,66.90
2019-02-06T05:02:09.530Z,67.00
2019-02-06T05:06:13.026Z,67.00
2019-02-06T05:10:16.696Z,66.90
2019-02-06T05:14:20.503Z,66.60
2019-02-06T05:18:23.947Z,66.90
2019-02-06T05:22:27.648Z,66.70
2019-02-06T05:26:31.097Z,66.80
2019-02-06T05:30:34.524Z,66.40
2019-02-06T05:34:37.954Z,66.50
2019-02-06T05:38:41.388Z,66.20
2019-02-06T05:42:45.103Z,66.20
2019-02-06T05:46:48.530Z,66.20
2019-02-06T05:50:52.023Z,66.10
2019-02-06T05:54:55.457Z,66.10
2019-02-06T05:58:58.892Z,66.10
2019-02-06T06:03:02.396Z,65.80
2019-02-06T06:07:05.901Z,66.00
2019-02-06T06:11:09.318Z,65.90
2019-02-06T06:15:15.168Z,65.70
2019-02-06T06:19:18.616Z,65.60
2019-02-06T06:23:22.039Z,65.70
2019-02-06T06:27:25.478Z,65.40
2019-02-06T06:31:29.072Z,65.40
2019-02-06T06:35:32.595Z,65.50
2019-02-06T06:39:36.032Z,65.50
2019-02-06T06:43:39.463Z,65.20
2019-02-06T06:47:42.893Z,65.10
2019-02-06T06:51:46.347Z,64.90
2019-02-06T06:55:50.359Z,64.70
2019-02-06T06:59:55.646Z,64.70
2019-02-06T07:03:58.972Z,64.60
2019-02-06T07:08:09.606Z,64.60
2019-02-06T07:12:07.637Z,65.00
2019-02-06T07:16:11.067Z,65.00
2019-02-06T07:20:17.152Z,64.50
2019-02-06T07:24:20.592Z,64.40
2019-02-06T07:28:24.012Z,63.30
2019-02-06T07:32:27.446Z,63.90
2019-02-06T07:36:30.894Z,63.90
2019-02-06T07:40:34.328Z,63.90
2019-02-06T07:44:37.756Z,63.90
2019-02-06T07:48:41.185Z,63.60
2019-02-06T07:52:44.702Z,63.60
2019-02-06T07:56:48.831Z,63.40
2019-02-06T08:00:52.260Z,63.00
2019-02-06T08:04:56.060Z,63.10
2019-02-06T08:08:59.501Z,63.00
2019-02-06T08:13:04.087Z,62.60
2019-02-06T08:17:07.705Z,62.50
2019-02-06T08:21:11.136Z,62.40
2019-02-06T08:25:17.096Z,62.30
2019-02-06T08:29:20.536Z,61.90
2019-02-06T08:33:23.968Z,62.00
2019-02-06T08:37:27.408Z,61.80
2019-02-06T08:41:30.854Z,61.20
2019-02-06T08:45:34.278Z,61.00
2019-02-06T08:49:37.775Z,61.10
2019-02-06T08:53:41.219Z,61.00
2019-02-06T08:57:44.833Z,60.60
2019-02-06T09:01:48.274Z,60.50
2019-02-06T09:05:52.362Z,60.20
2019-02-06T09:09:55.805Z,60.20
2019-02-06T09:13:59.537Z,59.70
2019-02-06T09:18:03.171Z,59.60
2019-02-06T09:22:06.703Z,59.50
2019-02-06T09:26:10.192Z,59.20
2019-02-06T09:30:22.329Z,59.00
2019-02-06T09:34:25.762Z,58.60
2019-02-06T09:38:29.252Z,58.40
2019-02-06T09:42:32.688Z,58.40
2019-02-06T09:46:36.128Z,58.10
2019-02-06T09:50:41.107Z,57.90
2019-02-06T09:54:44.608Z,57.80
2019-02-06T09:58:48.197Z,57.20
2019-02-06T10:02:53.208Z,57.60
2019-02-06T10:06:57.225Z,57.60
2019-02-06T10:11:00.969Z,57.40
2019-02-06T10:15:07.385Z,57.20
2019-02-06T10:19:11.121Z,57.10
2019-02-06T10:23:14.691Z,57.30
2019-02-06T10:27:18.116Z,56.90
2019-02-06T10:31:21.684Z,56.70
2019-02-06T10:35:25.199Z,56.60
2019-02-06T10:39:34.675Z,56.80
2019-02-06T10:43:35.929Z,56.70
2019-02-06T10:47:39.008Z,56.70
2019-02-06T10:51:42.586Z,56.30
2019-02-06T10:55:46.286Z,55.50
2019-02-06T10:59:49.768Z,55.80
2019-02-06T11:03:53.212Z,55.40
2019-02-06T11:07:57.280Z,55.60
2019-02-06T11:12:00.778Z,55.30
2019-02-06T11:16:04.401Z,55.10
2019-02-06T11:20:15.379Z,55.00
2019-02-06T11:24:19.011Z,54.80
2019-02-06T11:28:22.537Z,54.80
2019-02-06T11:32:26.091Z,54.40
2019-02-06T11:36:29.598Z,55.00
2019-02-06T11:40:33.587Z,54.50
2019-02-06T11:44:37.099Z,54.70
2019-02-06T11:48:43.321Z,54.60
2019-02-06T11:52:45.943Z,54.80
2019-02-06T11:56:49.447Z,54.70
2019-02-06T12:01:10.159Z,54.70
2019-02-06T12:05:14.018Z,54.70
2019-02-06T12:09:17.462Z,54.40
2019-02-06T12:13:20.891Z,54.40
2019-02-06T12:17:24.335Z,54.20
2019-02-06T12:21:27.771Z,54.00
2019-02-06T12:25:34.258Z,53.90
2019-02-06T12:29:36.358Z,53.10
2019-02-06T12:33:39.796Z,53.50
2019-02-06T12:37:43.712Z,53.20
2019-02-06T12:42:06.500Z,53.20
2019-02-06T12:46:09.917Z,52.20
2019-02-06T12:50:21.540Z,52.40
2019-02-06T12:54:25.039Z,52.50
2019-02-06T12:58:28.488Z,52.10
2019-02-06T13:02:31.925Z,52.00
2019-02-06T13:06:35.356Z,51.70
2019-02-06T13:10:38.857Z,51.60
2019-02-06T13:14:42.301Z,51.20
2019-02-06T13:18:45.741Z,51.10
2019-02-06T13:22:49.307Z,50.80
2019-02-06T13:26:55.661Z,50.70
2019-02-06T13:30:59.631Z,50.70
2019-02-06T13:35:03.868Z,50.50
2019-02-06T13:39:10.014Z,50.40
2019-02-06T13:43:13.715Z,49.70
2019-02-06T13:47:18.498Z,50.20
2019-02-06T13:51:22.059Z,50.20
2019-02-06T13:55:26.253Z,50.00
2019-02-06T13:59:29.865Z,50.10
2019-02-06T14:03:33.464Z,50.00
2019-02-06T14:07:38.507Z,49.60
2019-02-06T14:11:42.064Z,49.60
2019-02-06T14:15:48.178Z,49.70
2019-02-06T14:19:51.769Z,49.60
2019-02-06T14:23:58.334Z,49.60
2019-02-06T14:28:13.909Z,49.60
2019-02-06T14:32:26.371Z,49.50
2019-02-06T14:36:33.261Z,49.50
2019-02-06T14:40:45.852Z,49.20
2019-02-06T14:45:07.415Z,49.20
2019-02-06T14:49:22.151Z,48.50
2019-02-06T14:53:28.702Z,49.00
2019-02-06T14:57:41.386Z,48.90
2019-02-06T15:02:13.448Z,48.60
2019-02-06T15:06:31.467Z,48.30
2019-02-06T15:10:50.013Z,48.20
2019-02-06T15:15:12.960Z,48.50
2019-02-06T15:19:31.227Z,48.60
2019-02-06T15:23:46.425Z,48.80
2019-02-06T15:28:01.808Z,49.00
2019-02-06T15:32:32.492Z,49.20
2019-02-06T15:36:57.072Z,49.40
2019-02-06T15:41:31.158Z,49.80
2019-02-06T15:45:35.464Z,50.00
2019-02-06T15:49:50.970Z,50.40
2019-02-06T15:54:03.252Z,50.70
2019-02-06T15:58:18.833Z,51.00
2019-02-06T16:02:34.717Z,51.30
2019-02-06T16:06:59.304Z,51.60
2019-02-06T16:11:17.501Z,51.90
2019-02-06T16:15:24.011Z,51.90
2019-02-06T16:20:05.642Z,53.40
2019-02-06T16:24:15.839Z,53.10
2019-02-06T16:28:24.923Z,53.70
2019-02-06T16:32:34.080Z,54.00
2019-02-06T16:36:43.449Z,54.50
2019-02-06T16:40:58.559Z,54.50
2019-02-06T16:45:16.948Z,54.80
2019-02-06T16:49:26.050Z,55.10
2019-02-06T16:54:02.646Z,55.30
2019-02-06T16:58:35.223Z,55.90
2019-02-06T17:03:03.187Z,56.20
2019-02-06T17:07:15.227Z,56.40
2019-02-06T17:11:43.736Z,56.40
2019-02-06T17:16:05.680Z,56.70
2019-02-06T17:20:30.474Z,56.80
2019-02-06T17:24:49.105Z,57.10
2019-02-06T17:28:55.637Z,57.30
2019-02-06T17:33:20.456Z,57.70
2019-02-06T17:37:29.625Z,57.90
2019-02-06T17:41:39.069Z,58.00
2019-02-06T17:45:51.328Z,58.40
2019-02-06T17:50:23.296Z,58.50
2019-02-06T17:54:53.603Z,58.70
2019-02-06T17:58:57.026Z,58.90
2019-02-06T18:03:04.194Z,58.90
2019-02-06T18:07:07.732Z,59.00
2019-02-06T18:11:11.848Z,59.20
2019-02-06T18:15:15.748Z,59.40
2019-02-06T18:19:19.198Z,59.60
2019-02-06T18:23:22.641Z,59.60
2019-02-06T18:27:26.155Z,59.80
2019-02-06T18:31:29.736Z,59.90
2019-02-06T18:35:33.174Z,59.90
2019-02-06T18:39:36.858Z,59.60
2019-02-06T18:43:40.329Z,60.30
2019-02-06T18:47:43.967Z,60.30
2019-02-06T18:51:47.478Z,60.50
2019-02-06T18:55:51.364Z,60.80
2019-02-06T18:59:55.185Z,61.00
2019-02-06T19:04:00.421Z,61.00
2019-02-06T19:08:04.794Z,61.20
2019-02-06T19:12:08.377Z,61.30
2019-02-06T19:16:11.812Z,61.40
2019-02-06T19:20:17.460Z,61.60
2019-02-06T19:24:20.902Z,61.90
2019-02-06T19:28:24.479Z,62.30
2019-02-06T19:32:27.994Z,62.70
2019-02-06T19:36:31.504Z,63.30
2019-02-06T19:40:35.144Z,63.40
2019-02-06T19:44:38.584Z,63.60
2019-02-06T19:48:42.027Z,63.80
2019-02-06T19:52:45.469Z,63.90
2019-02-06T19:56:49.019Z,63.90
2019-02-06T20:00:52.494Z,64.00
2019-02-06T20:04:56.004Z,63.80
2019-02-06T20:08:59.594Z,63.80
2019-02-06T20:13:10.561Z,63.90
2019-02-06T20:17:08.264Z,63.90
2019-02-06T20:21:11.765Z,64.00
2019-02-06T20:25:15.714Z,64.20
2019-02-06T20:29:19.305Z,64.10
2019-02-06T20:33:22.825Z,64.10
2019-02-06T20:37:26.270Z,64.20
2019-02-06T20:41:29.696Z,64.10
2019-02-06T20:45:33.272Z,64.40
2019-02-06T20:49:36.857Z,65.30
2019-02-06T20:53:40.318Z,65.10
2019-02-06T20:57:43.748Z,65.00
2019-02-06T21:01:47.204Z,65.10
2019-02-06T21:05:50.652Z,65.20
2019-02-06T21:09:54.933Z,65.10
2019-02-06T21:13:58.380Z,65.10
2019-02-06T21:18:01.869Z,65.50
2019-02-06T21:22:05.517Z,65.60
2019-02-06T21:26:08.965Z,65.80
2019-02-06T21:30:18.591Z,66.00
2019-02-06T21:34:22.033Z,65.90
2019-02-06T21:38:26.032Z,65.70
2019-02-06T21:42:29.464Z,65.70
2019-02-06T21:46:32.913Z,65.70
2019-02-06T21:50:36.376Z,65.10
2019-02-06T21:54:39.889Z,66.10
2019-02-06T21:58:43.380Z,65.60
2019-02-06T22:02:46.829Z,65.60
2019-02-06T22:06:50.332Z,65.60
2019-02-06T22:10:53.765Z,65.70
2019-02-06T22:14:57.197Z,65.40
2019-02-06T22:19:00.625Z,65.40
2019-02-06T22:23:04.139Z,65.30
2019-02-06T22:27:07.660Z,65.20
2019-02-06T22:31:11.541Z,65.00
2019-02-06T22:35:15.506Z,65.00
2019-02-06T22:39:19.390Z,64.80
2019-02-06T22:43:22.824Z,64.60
2019-02-06T22:47:26.263Z,64.60
2019-02-06T22:51:29.695Z,64.60
2019-02-06T22:55:33.125Z,64.70
2019-02-06T22:59:36.560Z,64.40
2019-02-06T23:03:39.991Z,64.50
2019-02-06T23:07:43.508Z,64.10
2019-02-06T23:11:46.949Z,64.10
2019-02-06T23:15:50.441Z,64.10
2019-02-06T23:19:53.885Z,64.10
2019-02-06T23:23:57.386Z,64.10
2019-02-06T23:28:00.812Z,64.10
2019-02-06T23:32:05.011Z,63.80
2019-02-06T23:36:08.620Z,64.00
2019-02-06T23:40:16.545Z,63.50
2019-02-06T23:44:28.560Z,63.80
2019-02-06T23:48:25.218Z,63.80
2019-02-06T23:52:28.646Z,64.10
2019-02-06T23:56:32.069Z,64.10
